Time;durP1;ratioP1;P1;durP2;ratioP2;P2;SDS_P1;SDS_P2;PMS_P1;PMS_P2;Temp;Humidity;BMP_temperature;BMP_pressure;BME280_temperature;BME280_humidity;BME280_pressure;Samples;Min_cycle;Max_cycle;Signal;HPM_P1;HPM_P2
2021/06/03 00:02:11;;;;;;;;;;;;;;;16.78;55.80;97097.22;5046823;28;19925;-68
2021/06/03 00:04:38;;;;;;;;;;;;;;;16.75;56.06;97097.63;5047300;28;20408;-68
2021/06/03 00:07:05;;;;;;;;;;;;;;;16.77;56.10;97101.66;5047750;28;20272;-68
2021/06/03 00:09:31;;;;;;;;;;;;;;;16.78;55.95;97103.25;5047888;28;19928;-68
2021/06/03 00:11:58;;;;;;;;;;;;;;;16.77;55.92;97101.66;5031834;28;19943;-68
2021/06/03 00:14:25;;;;;;;;;;;;;;;16.77;55.95;97101.66;5051215;28;19925;-68
2021/06/03 00:16:51;;;;;;;;;;;;;;;16.73;55.96;97087.28;5033685;28;19924;-68
2021/06/03 00:19:18;;;;;;;;;;;;;;;16.78;55.91;97094.56;5050928;28;20368;-68
2021/06/03 00:21:44;;;;;;;;;;;;;;;16.76;55.98;97083.44;5048862;28;20347;-68
2021/06/03 00:24:11;;;;;;;;;;;;;;;16.76;55.93;97083.44;5051242;28;19944;-68
2021/06/03 00:26:38;;;;;;;;;;;;;;;16.76;55.92;97089.50;5051478;28;19924;-68
2021/06/03 00:29:05;;;;;;;;;;;;;;;16.76;56.06;97086.06;5046280;28;20331;-68
2021/06/03 00:31:32;;;;;;;;;;;;;;;16.77;55.92;97101.66;5050936;28;19944;-68
2021/06/03 00:33:59;;;;;;;;;;;;;;;16.75;56.22;97094.97;5050446;28;19967;-68
2021/06/03 00:36:25;;;;;;;;;;;;;;;16.75;56.07;97094.97;5051272;28;20344;-68
2021/06/03 00:38:51;;;;;;;;;;;;;;;16.75;56.11;97093.16;5049592;28;19936;-69
2021/06/03 00:41:19;;;;;;;;;;;;;;;16.78;55.99;97103.25;5048102;28;21441;-69
2021/06/03 00:43:45;;;;;;;;;;;;;;;16.77;55.90;97099.03;5049476;28;19925;-69
2021/06/03 00:46:12;;;;;;;;;;;;;;;16.77;56.04;97101.66;5049475;28;19943;-69
2021/06/03 00:48:39;;;;;;;;;;;;;;;16.78;56.05;97102.47;5047877;28;19933;-69
2021/06/03 00:51:07;;;;;;;;;;;;;;;16.78;55.91;97091.94;5048740;28;19932;-68
2021/06/03 00:53:34;;;;;;;;;;;;;;;16.77;56.07;97095.59;5048371;28;19929;-68
2021/06/03 00:56:02;;;;;;;;;;;;;;;16.76;55.98;97097.41;5030619;28;20020;-68
2021/06/03 00:58:31;;;;;;;;;;;;;;;16.78;55.90;97086.69;5027499;28;19970;-68
2021/06/03 01:00:59;;;;;;;;;;;;;;;16.78;56.02;97098.00;5028960;28;19951;-68
2021/06/03 01:03:27;;;;;;;;;;;;;;;16.78;55.90;97105.09;5031794;28;20324;-68
2021/06/03 01:05:59;;;;;;;;;;;;;;;16.77;55.96;97109.53;5044881;28;20413;-68
2021/06/03 01:08:28;;;;;;;;;;;;;;;16.75;56.28;97102.88;5032867;28;19929;-68
2021/06/03 01:11:09;;;;;;;;;;;;;;;16.78;56.11;97108.53;5049488;28;19925;-68
2021/06/03 01:13:36;;;;;;;;;;;;;;;16.78;55.89;97102.47;5048900;28;19932;-68
2021/06/03 01:16:04;;;;;;;;;;;;;;;16.77;55.93;97108.75;5031329;28;20384;-68
2021/06/03 01:18:33;;;;;;;;;;;;;;;16.79;56.04;97112.78;5048286;28;19964;-68
2021/06/03 01:21:02;;;;;;;;;;;;;;;16.77;56.04;97114.00;5045328;28;19985;-68
2021/06/03 01:23:32;;;;;;;;;;;;;;;16.77;56.00;97112.19;5048688;28;19925;-68
2021/06/03 01:25:59;;;;;;;;;;;;;;;16.77;56.03;97114.00;5047743;28;19933;-68
2021/06/03 01:28:26;;;;;;;;;;;;;;;16.78;55.90;97115.59;5046651;28;19943;-68
2021/06/03 01:30:54;;;;;;;;;;;;;;;16.78;55.99;97118.25;5047911;28;19955;-68
2021/06/03 01:33:23;;;;;;;;;;;;;;;16.77;55.97;97124.53;5048836;28;19932;-68
2021/06/03 01:35:53;;;;;;;;;;;;;;;16.78;56.12;97131.38;5046968;28;19937;-68
2021/06/03 01:38:29;;;;;;;;;;;;;;;16.79;55.94;97133.03;5028312;28;19986;-68
2021/06/03 01:40:56;;;;;;;;;;;;;;;16.74;56.08;97127.53;5047380;28;19928;-68
2021/06/03 01:43:23;;;;;;;;;;;;;;;16.76;55.99;97126.31;5048726;28;19925;-68
2021/06/03 01:45:51;;;;;;;;;;;;;;;16.75;56.08;97124.69;5048198;28;19932;-68
2021/06/03 01:48:21;;;;;;;;;;;;;;;16.75;55.97;97124.69;5030084;28;19928;-68
2021/06/03 01:50:49;;;;;;;;;;;;;;;16.75;55.99;97127.34;5049209;28;19994;-68
2021/06/03 01:53:16;;;;;;;;;;;;;;;16.76;55.98;97136.03;5048494;28;19932;-68
2021/06/03 01:55:44;;;;;;;;;;;;;;;16.75;56.08;97135.22;5028114;28;19924;-68
2021/06/03 01:58:11;;;;;;;;;;;;;;;16.76;55.97;97128.94;5047819;28;19986;-68
2021/06/03 02:00:42;;;;;;;;;;;;;;;16.76;55.92;97128.13;5026379;28;19947;-68
2021/06/03 02:03:09;;;;;;;;;;;;;;;16.74;56.07;97124.91;5031060;28;19925;-68
2021/06/03 02:05:36;;;;;;;;;;;;;;;16.74;56.18;97128.31;5046851;28;19932;-68
2021/06/03 02:08:02;;;;;;;;;;;;;;;16.74;56.09;97125.69;5047714;28;19964;-68
2021/06/03 02:10:54;;;;;;;;;;;;;;;16.75;56.16;97131.78;5048844;28;19937;-68
2021/06/03 02:13:29;;;;;;;;;;;;;;;16.73;55.94;97131.97;5049349;28;19931;-68
2021/06/03 02:16:02;;;;;;;;;;;;;;;16.73;56.10;97133.81;5031059;28;19933;-68
2021/06/03 02:18:36;;;;;;;;;;;;;;;16.77;55.93;97143.72;5029999;28;20322;-68
2021/06/03 02:21:05;;;;;;;;;;;;;;;16.73;56.06;97137.22;5029174;28;19936;-68
2021/06/03 02:23:32;;;;;;;;;;;;;;;16.76;56.12;97146.53;5050828;28;19971;-68
2021/06/03 02:26:03;;;;;;;;;;;;;;;16.76;56.04;97147.34;5030415;28;19924;-68
2021/06/03 02:28:33;;;;;;;;;;;;;;;16.76;56.22;97155.22;5028900;28;20440;-68
2021/06/03 02:31:00;;;;;;;;;;;;;;;16.73;55.95;97147.75;5029355;28;19929;-68
2021/06/03 02:33:30;;;;;;;;;;;;;;;16.76;56.09;97157.06;5046879;28;20393;-68
2021/06/03 02:35:57;;;;;;;;;;;;;;;16.73;56.04;97153.00;5048749;28;19994;-68
2021/06/03 02:38:26;;;;;;;;;;;;;;;16.74;56.17;97151.97;5047916;28;19964;-68
2021/06/03 02:40:57;;;;;;;;;;;;;;;16.73;56.28;97154.84;5029140;28;19959;-68
2021/06/03 02:43:23;;;;;;;;;;;;;;;16.73;56.11;97158.25;5049196;28;20015;-68
2021/06/03 02:45:50;;;;;;;;;;;;;;;16.75;55.95;97165.97;5047366;28;19925;-68
2021/06/03 02:48:17;;;;;;;;;;;;;;;16.73;56.18;97163.53;5028953;28;20403;-68
2021/06/03 02:50:47;;;;;;;;;;;;;;;16.73;56.17;97155.63;5045843;28;19935;-68
2021/06/03 02:53:14;;;;;;;;;;;;;;;16.74;56.08;97162.50;5047385;28;19925;-68
2021/06/03 02:55:42;;;;;;;;;;;;;;;16.73;56.20;97160.88;5046820;28;20356;-68
2021/06/03 02:58:11;;;;;;;;;;;;;;;16.73;56.10;97160.09;5047387;28;19925;-68
2021/06/03 03:00:42;;;;;;;;;;;;;;;16.73;56.19;97166.16;5039332;28;19925;-68
2021/06/03 03:03:10;;;;;;;;;;;;;;;16.73;56.30;97163.53;5028549;28;19929;-68
2021/06/03 03:05:38;;;;;;;;;;;;;;;16.73;56.32;97174.03;5030256;28;19959;-68
2021/06/03 03:08:05;;;;;;;;;;;;;;;16.72;56.08;97172.44;5028688;28;19929;-68
2021/06/03 03:10:34;;;;;;;;;;;;;;;16.73;56.17;97176.66;5047447;28;20019;-68
2021/06/03 03:13:03;;;;;;;;;;;;;;;16.71;56.35;97176.03;5047411;28;20447;-68
2021/06/03 03:15:30;;;;;;;;;;;;;;;16.71;56.22;97180.50;5031968;28;20012;-68
2021/06/03 03:17:58;;;;;;;;;;;;;;;16.72;56.18;97176.84;5043260;28;20377;-68
2021/06/03 03:20:25;;;;;;;;;;;;;;;16.76;56.08;97183.34;5044000;28;19932;-68
2021/06/03 03:22:53;;;;;;;;;;;;;;;16.73;56.18;97181.13;5047541;28;20277;-68
2021/06/03 03:25:22;;;;;;;;;;;;;;;16.73;56.32;97183.75;5046827;28;20296;-68
2021/06/03 03:27:51;;;;;;;;;;;;;;;16.72;56.13;97177.69;5026370;28;19962;-68
2021/06/03 03:30:19;;;;;;;;;;;;;;;16.70;56.25;97179.69;5047602;28;20352;-68
2021/06/03 03:32:46;;;;;;;;;;;;;;;16.72;56.07;97188.19;5046891;28;19933;-68
2021/06/03 03:35:13;;;;;;;;;;;;;;;16.72;56.15;97188.19;5027495;28;20561;-68
2021/06/03 03:37:41;;;;;;;;;;;;;;;16.74;56.03;97185.34;5047472;28;20434;-68
2021/06/03 03:40:12;;;;;;;;;;;;;;;16.73;56.14;97189.81;5048930;28;19924;-68
2021/06/03 03:42:40;;;;;;;;;;;;;;;16.73;56.09;97195.06;5039713;28;19948;-68
2021/06/03 03:45:08;;;;;;;;;;;;;;;16.75;56.03;97189.63;5048011;28;19929;-68
2021/06/03 03:47:35;;;;;;;;;;;;;;;16.75;56.05;97198.31;5032671;28;19932;-68
2021/06/03 03:50:04;;;;;;;;;;;;;;;16.73;56.07;97197.69;5051077;28;19987;-68
2021/06/03 03:52:32;;;;;;;;;;;;;;;16.74;56.34;97201.13;5051855;28;19932;-68
2021/06/03 03:55:00;;;;;;;;;;;;;;;16.73;56.11;97202.16;5031516;28;19978;-68
2021/06/03 03:57:28;;;;;;;;;;;;;;;16.73;56.15;97208.22;5049174;28;19932;-68
2021/06/03 03:59:56;;;;;;;;;;;;;;;16.73;56.23;97205.56;5023370;28;19932;-68
2021/06/03 04:02:23;;;;;;;;;;;;;;;16.73;56.14;97210.84;5051861;28;19952;-68
2021/06/03 04:04:50;;;;;;;;;;;;;;;16.72;56.04;97203.97;5034439;28;19968;-68
2021/06/03 04:07:17;;;;;;;;;;;;;;;16.72;56.25;97206.59;5047817;28;19999;-68
2021/06/03 04:09:45;;;;;;;;;;;;;;;16.75;56.08;97214.09;5050655;28;19929;-68
2021/06/03 04:12:12;;;;;;;;;;;;;;;16.73;56.07;97205.56;5036632;28;19925;-68
2021/06/03 04:14:42;;;;;;;;;;;;;;;16.72;56.17;97214.50;5050939;28;19932;-68
2021/06/03 04:17:09;;;;;;;;;;;;;;;16.75;56.13;97210.66;5031110;28;19970;-68
2021/06/03 04:19:36;;;;;;;;;;;;;;;16.74;56.31;97211.63;5035819;28;19978;-68
2021/06/03 04:22:03;;;;;;;;;;;;;;;16.73;56.21;97217.91;5052020;28;19932;-68
2021/06/03 04:24:32;;;;;;;;;;;;;;;16.75;56.18;97224.59;5031489;28;20393;-68
2021/06/03 04:26:59;;;;;;;;;;;;;;;16.71;56.02;97214.66;5031966;28;19929;-68
2021/06/03 04:29:25;;;;;;;;;;;;;;;16.72;56.23;97225.00;5049569;28;19955;-68
2021/06/03 04:31:51;;;;;;;;;;;;;;;16.74;55.94;97227.41;5034245;28;20384;-68
2021/06/03 04:34:18;;;;;;;;;;;;;;;16.73;56.17;97233.69;5050275;28;19924;-68
2021/06/03 04:36:44;;;;;;;;;;;;;;;16.73;56.12;97226.59;5048641;28;19928;-68
2021/06/03 04:39:11;;;;;;;;;;;;;;;16.74;56.00;97241.38;5051341;28;19925;-68
2021/06/03 04:41:37;;;;;;;;;;;;;;;16.75;56.13;97242.19;5051500;28;19925;-68
2021/06/03 04:44:04;;;;;;;;;;;;;;;16.74;55.98;97248.44;5049073;28;19925;-68
2021/06/03 04:46:30;;;;;;;;;;;;;;;16.73;55.84;97242.38;5048805;28;19968;-68
2021/06/03 04:48:57;;;;;;;;;;;;;;;16.73;56.02;97247.63;5032275;28;19936;-68
2021/06/03 04:51:23;;;;;;;;;;;;;;;16.72;56.43;97250.44;5049117;28;19960;-68
2021/06/03 04:53:50;;;;;;;;;;;;;;;16.74;56.06;97248.44;5049924;28;20300;-68
2021/06/03 04:56:16;;;;;;;;;;;;;;;16.74;55.87;97249.25;5049653;28;19929;-68
2021/06/03 04:58:42;;;;;;;;;;;;;;;16.74;56.26;97253.69;5050394;28;19925;-68
2021/06/03 05:01:09;;;;;;;;;;;;;;;16.73;56.22;97247.63;5049231;28;19932;-68
2021/06/03 05:03:35;;;;;;;;;;;;;;;16.72;56.25;97251.28;5048367;28;20354;-68
2021/06/03 05:06:02;;;;;;;;;;;;;;;16.71;56.21;97246.22;5047937;28;20582;-68
2021/06/03 05:08:29;;;;;;;;;;;;;;;16.72;55.99;97251.28;5030714;28;19929;-68
2021/06/03 05:10:55;;;;;;;;;;;;;;;16.72;56.31;97250.44;5048659;28;19928;-68
2021/06/03 05:13:21;;;;;;;;;;;;;;;16.73;56.04;97258.16;5048607;28;20324;-68
2021/06/03 05:15:48;;;;;;;;;;;;;;;16.73;56.04;97262.59;5049636;28;19925;-68
2021/06/03 05:18:14;;;;;;;;;;;;;;;16.72;56.07;97256.53;5050486;28;20345;-68
2021/06/03 05:20:41;;;;;;;;;;;;;;;16.72;56.28;97267.06;5047667;28;19933;-68
2021/06/03 05:23:07;;;;;;;;;;;;;;;16.71;56.14;97269.88;5048669;28;19937;-68
2021/06/03 05:25:34;;;;;;;;;;;;;;;16.69;56.33;97267.44;5032585;28;19931;-68
2021/06/03 05:28:01;;;;;;;;;;;;;;;16.66;56.12;97271.25;5050852;28;19929;-68
2021/06/03 05:30:28;;;;;;;;;;;;;;;16.67;56.14;97258.94;5047155;28;19925;-68
2021/06/03 05:32:55;;;;;;;;;;;;;;;16.67;56.09;97264.19;5048384;28;20381;-68
2021/06/03 05:35:22;;;;;;;;;;;;;;;16.68;56.16;97268.44;5048698;28;19940;-68
2021/06/03 05:37:49;;;;;;;;;;;;;;;16.70;56.19;97274.31;5050803;28;19929;-68
2021/06/03 05:40:18;;;;;;;;;;;;;;;16.65;56.04;97271.44;5048182;28;19932;-68
2021/06/03 05:42:45;;;;;;;;;;;;;;;16.64;56.11;97275.91;5047749;28;20423;-68
2021/06/03 05:45:12;;;;;;;;;;;;;;;16.66;56.10;97276.53;5049793;28;19929;-68
2021/06/03 05:47:40;;;;;;;;;;;;;;;16.66;56.31;97294.13;5048147;28;19947;-68
2021/06/03 05:50:08;;;;;;;;;;;;;;;16.62;56.49;97290.25;5048279;28;20308;-68
2021/06/03 05:52:35;;;;;;;;;;;;;;;16.64;56.12;97290.88;5029484;28;20280;-70
2021/06/03 05:55:02;;;;;;;;;;;;;;;16.67;56.23;97295.72;5049616;28;19932;-69
2021/06/03 05:57:28;;;;;;;;;;;;;;;16.66;56.17;97294.91;5047933;28;19928;-69
2021/06/03 05:59:56;;;;;;;;;;;;;;;16.63;56.39;97295.28;5025809;28;19929;-68
2021/06/03 06:02:31;;;;;;;;;;;;;;;16.65;56.13;97298.53;5048774;28;20377;-68
2021/06/03 06:07:47;;;;;;;;;;;;;;;16.63;56.32;97311.06;5010490;28;19929;-68
2021/06/03 06:10:14;;;;;;;;;;;;;;;16.65;56.32;97308.25;5047590;28;19931;-67
2021/06/03 06:12:40;;;;;;;;;;;;;;;16.66;56.26;97300.19;5028817;28;19929;-66
2021/06/03 06:15:07;;;;;;;;;;;;;;;16.66;56.32;97312.50;5047955;28;20398;-67
2021/06/03 06:17:33;;;;;;;;;;;;;;;16.64;56.36;97306.63;5047759;28;19932;-67
2021/06/03 06:19:59;;;;;;;;;;;;;;;16.63;56.44;97308.44;5030548;28;20360;-65
2021/06/03 06:22:26;;;;;;;;;;;;;;;16.63;56.36;97312.88;5047081;28;19929;-66
2021/06/03 06:24:53;;;;;;;;;;;;;;;16.65;56.34;97310.88;5030413;28;19925;-66
2021/06/03 06:27:19;;;;;;;;;;;;;;;16.61;56.27;97307.81;5049903;28;20731;-66
2021/06/03 06:29:46;;;;;;;;;;;;;;;16.66;56.37;97304.63;5045081;28;19932;-64
2021/06/03 06:32:12;;;;;;;;;;;;;;;16.63;56.44;97310.25;5046659;28;19956;-65
2021/06/03 06:34:39;;;;;;;;;;;;;;;16.64;56.39;97304.00;5048251;28;19940;-65
2021/06/03 06:37:05;;;;;;;;;;;;;;;16.62;56.27;97319.16;5046316;28;19955;-66
2021/06/03 06:39:32;;;;;;;;;;;;;;;16.63;56.47;97312.88;5045320;28;20380;-65
2021/06/03 06:41:58;;;;;;;;;;;;;;;16.66;56.39;97315.13;5046136;28;19949;-66
2021/06/03 06:44:24;;;;;;;;;;;;;;;16.66;56.26;97315.13;5048337;28;19925;-65
2021/06/03 06:46:51;;;;;;;;;;;;;;;16.67;56.21;97316.75;5047359;28;19932;-66
2021/06/03 06:49:18;;;;;;;;;;;;;;;16.66;56.34;97325.66;5047025;28;19929;-64
2021/06/03 06:51:44;;;;;;;;;;;;;;;16.65;56.50;97326.66;5048147;28;19925;-66
2021/06/03 06:54:10;;;;;;;;;;;;;;;16.67;56.42;97322.81;5048171;28;19981;-66
2021/06/03 06:56:37;;;;;;;;;;;;;;;16.68;56.21;97324.47;5047704;28;20522;-66
2021/06/03 06:59:03;;;;;;;;;;;;;;;16.65;56.31;97324.00;5045280;28;19929;-66
2021/06/03 07:01:30;;;;;;;;;;;;;;;16.65;56.53;97327.44;5047600;28;19928;-66
2021/06/03 07:03:56;;;;;;;;;;;;;;;16.65;56.10;97339.78;5048618;28;19929;-67
2021/06/03 07:06:23;;;;;;;;;;;;;;;16.67;56.11;97332.53;5047016;28;19925;-66
2021/06/03 07:08:49;;;;;;;;;;;;;;;16.65;56.29;97337.16;5046790;28;19940;-66
2021/06/03 07:11:16;;;;;;;;;;;;;;;16.66;56.01;97336.16;5047519;28;19925;-67
2021/06/03 07:13:43;;;;;;;;;;;;;;;16.66;56.15;97329.09;5047560;28;19925;-66
2021/06/03 07:16:09;;;;;;;;;;;;;;;16.68;56.31;97339.41;5045122;28;19933;-67
2021/06/03 07:18:37;;;;;;;;;;;;;;;16.66;56.24;97338.81;5044454;28;20015;-67
2021/06/03 07:21:03;;;;;;;;;;;;;;;16.64;56.36;97343.44;5044597;28;19933;-67
2021/06/03 07:23:30;;;;;;;;;;;;;;;16.64;56.21;97331.09;5047960;28;19936;-67
2021/06/03 07:25:57;;;;;;;;;;;;;;;16.65;56.33;97334.53;5046822;28;20801;-66
2021/06/03 07:28:23;;;;;;;;;;;;;;;16.67;56.21;97335.16;5045841;28;20257;-66
2021/06/03 07:30:50;;;;;;;;;;;;;;;16.62;56.54;97338.34;5049251;28;19936;-64
2021/06/03 07:33:17;;;;;;;;;;;;;;;16.67;56.33;97332.53;5051030;28;19928;-66
2021/06/03 07:35:44;;;;;;;;;;;;;;;16.69;55.81;97330.53;5044856;28;19925;-66
2021/06/03 07:38:10;;;;;;;;;;;;;;;16.72;55.86;97337.19;5048523;28;19925;-66
2021/06/03 07:40:38;;;;;;;;;;;;;;;16.75;55.68;97334.22;5047698;28;19970;-67
2021/06/03 07:43:06;;;;;;;;;;;;;;;16.74;55.68;97337.81;5049670;28;19924;-67
2021/06/03 07:45:33;;;;;;;;;;;;;;;16.70;55.85;97337.41;5046059;28;19932;-67
2021/06/03 07:47:59;;;;;;;;;;;;;;;16.72;55.99;97338.03;5045348;28;20335;-67
2021/06/03 07:50:27;;;;;;;;;;;;;;;16.71;55.86;97341.66;5048889;28;20389;-67
2021/06/03 07:52:54;;;;;;;;;;;;;;;16.71;55.87;97341.66;5049141;28;19978;-67
2021/06/03 07:55:20;;;;;;;;;;;;;;;16.74;55.90;97341.25;5044136;28;19925;-68
2021/06/03 07:57:49;;;;;;;;;;;;;;;16.73;55.70;97339.66;5046391;28;19924;-70
2021/06/03 08:00:18;;;;;;;;;;;;;;;16.73;55.81;97341.47;5048434;28;20332;-69
2021/06/03 08:02:45;;;;;;;;;;;;;;;16.75;55.81;97339.47;5045750;28;19924;-68
2021/06/03 08:05:12;;;;;;;;;;;;;;;16.73;55.85;97341.47;5045845;28;19924;-68
2021/06/03 08:07:39;;;;;;;;;;;;;;;16.75;55.92;97340.28;5044692;28;19940;-68
2021/06/03 08:10:07;;;;;;;;;;;;;;;16.74;55.87;97341.25;5047785;28;19932;-70
2021/06/03 08:12:34;;;;;;;;;;;;;;;16.76;55.76;97352.41;5027328;28;20343;-69
2021/06/03 08:15:02;;;;;;;;;;;;;;;16.76;55.63;97346.34;5028116;28;20054;-69
2021/06/03 08:17:29;;;;;;;;;;;;;;;16.76;55.91;97347.13;5045907;28;20366;-69
2021/06/03 08:19:56;;;;;;;;;;;;;;;16.76;55.87;97341.88;5047431;28;20316;-70
2021/06/03 08:22:22;;;;;;;;;;;;;;;16.78;55.76;97341.69;5049783;28;20020;-69
2021/06/03 08:24:48;;;;;;;;;;;;;;;16.78;55.86;97345.13;5052763;28;19940;-70
2021/06/03 08:27:15;;;;;;;;;;;;;;;16.78;55.72;97337.25;5044177;28;19928;-71
2021/06/03 08:29:41;;;;;;;;;;;;;;;16.78;55.80;97339.88;5045179;28;20525;-69
2021/06/03 08:32:08;;;;;;;;;;;;;;;16.76;55.93;97334.00;5028717;28;19925;-70
2021/06/03 08:34:35;;;;;;;;;;;;;;;16.79;55.62;97336.25;5049713;28;19925;-70
2021/06/03 08:37:01;;;;;;;;;;;;;;;16.78;55.69;97331.19;5048412;28;19929;-72
2021/06/03 08:39:28;;;;;;;;;;;;;;;16.75;55.99;97339.47;5050423;28;19932;-71
2021/06/03 08:41:57;;;;;;;;;;;;;;;16.75;55.76;97335.00;5048767;28;20395;-71
2021/06/03 08:44:25;;;;;;;;;;;;;;;16.75;55.83;97335.00;5044691;28;19925;-72
2021/06/03 08:46:52;;;;;;;;;;;;;;;16.77;55.74;97330.38;5048800;28;19932;-71
2021/06/03 08:49:18;;;;;;;;;;;;;;;16.77;55.68;97327.75;5032726;28;20031;-72
2021/06/03 08:51:48;;;;;;;;;;;;;;;16.80;55.86;97337.91;5031368;28;19929;-73
2021/06/03 08:54:14;;;;;;;;;;;;;;;16.80;55.81;97330.00;5049268;28;19933;-72
2021/06/03 08:56:41;;;;;;;;;;;;;;;16.79;55.87;97338.09;5049828;28;20388;-70
2021/06/03 08:59:07;;;;;;;;;;;;;;;16.81;55.79;97338.72;5032668;28;19924;-71
2021/06/03 09:01:34;;;;;;;;;;;;;;;16.81;55.65;97326.41;5032078;28;19928;-71
2021/06/03 09:04:01;;;;;;;;;;;;;;;16.81;55.69;97334.28;5029968;28;20031;-71
2021/06/03 09:06:30;;;;;;;;;;;;;;;16.80;55.83;97331.81;5049067;28;19924;-71
2021/06/03 09:08:58;;;;;;;;;;;;;;;16.81;55.79;97333.47;5033129;28;19929;-71
2021/06/03 09:11:30;;;;;;;;;;;;;;;16.81;55.78;97329.03;5049372;28;20296;-72
2021/06/03 09:13:57;;;;;;;;;;;;;;;16.80;55.88;97327.38;5031430;28;20385;-71
2021/06/03 09:16:28;;;;;;;;;;;;;;;16.81;55.80;97334.28;5051039;28;19925;-72
2021/06/03 09:19:04;;;;;;;;;;;;;;;16.83;55.62;97327.00;5031512;28;19925;-72
2021/06/03 09:21:34;;;;;;;;;;;;;;;16.90;55.48;97327.06;5048862;28;19929;-71
2021/06/03 09:24:03;;;;;;;;;;;;;;;16.94;55.30;97328.28;5029472;28;19937;-72
2021/06/03 09:26:32;;;;;;;;;;;;;;;16.96;55.33;97326.28;5050251;28;20389;-73
2021/06/03 09:29:00;;;;;;;;;;;;;;;16.97;55.14;97327.09;5029879;28;19925;-73
2021/06/03 09:31:30;;;;;;;;;;;;;;;16.97;55.31;97324.47;5050259;28;19939;-72
2021/06/03 09:34:01;;;;;;;;;;;;;;;16.97;55.29;97316.56;5043960;28;20347;-72
2021/06/03 09:36:29;;;;;;;;;;;;;;;16.87;55.59;97323.00;5046442;28;20330;-72
2021/06/03 09:38:56;;;;;;;;;;;;;;;16.83;56.00;97320.94;5048890;28;19943;-73
2021/06/03 09:41:24;;;;;;;;;;;;;;;16.83;55.91;97323.59;5047230;28;20004;-72
2021/06/03 09:43:56;;;;;;;;;;;;;;;16.81;56.01;97318.50;5028419;28;20393;-73
2021/06/03 09:46:23;;;;;;;;;;;;;;;16.83;55.94;97315.69;5048835;28;20007;-72
2021/06/03 09:48:51;;;;;;;;;;;;;;;16.85;56.04;97318.94;5050710;28;19971;-72
2021/06/03 09:51:19;;;;;;;;;;;;;;;16.85;55.93;97313.69;5051319;28;19932;-73
2021/06/03 09:53:49;;;;;;;;;;;;;;;16.85;56.04;97314.50;5031970;28;19929;-72
2021/06/03 09:56:17;;;;;;;;;;;;;;;16.85;55.93;97313.69;5025401;28;19933;-72
2021/06/03 09:58:44;;;;;;;;;;;;;;;16.85;56.00;97316.31;5030519;28;19941;-71
2021/06/03 10:01:10;;;;;;;;;;;;;;;16.84;55.92;97304.97;5049031;28;19929;-70
2021/06/03 10:03:50;;;;;;;;;;;;;;;16.86;56.01;97310.03;5051089;28;19924;-70
2021/06/03 10:06:16;;;;;;;;;;;;;;;16.87;56.01;97304.59;5044970;28;19951;-71
2021/06/03 10:08:47;;;;;;;;;;;;;;;16.85;56.13;97309.22;5032073;28;19929;-71
2021/06/03 10:11:33;;;;;;;;;;;;;;;16.86;55.99;97304.78;5049072;28;19932;-73
2021/06/03 10:14:10;;;;;;;;;;;;;;;16.86;55.90;97312.66;5044839;28;19936;-73
2021/06/03 10:16:36;;;;;;;;;;;;;;;16.88;55.96;97303.56;5045634;28;19924;-74
2021/06/03 10:19:22;;;;;;;;;;;;;;;16.85;55.99;97311.06;5050029;28;20572;-74
2021/06/03 10:22:08;;;;;;;;;;;;;;;16.86;56.10;97308.22;5051013;28;20623;-71
2021/06/03 10:24:46;;;;;;;;;;;;;;;16.87;56.10;97296.72;5046996;28;20466;-69
2021/06/03 10:27:13;;;;;;;;;;;;;;;16.86;55.99;97305.59;5044208;28;19928;-68
2021/06/03 10:29:40;;;;;;;;;;;;;;;16.89;55.98;97304.41;5045383;28;19925;-69
2021/06/03 10:32:07;;;;;;;;;;;;;;;16.94;55.69;97307.25;5049304;28;19924;-70
2021/06/03 10:34:34;;;;;;;;;;;;;;;16.97;55.63;97300.78;5046593;28;19925;-69
2021/06/03 10:37:00;;;;;;;;;;;;;;;17.00;55.39;97301.22;5047661;28;19942;-72
2021/06/03 10:39:31;;;;;;;;;;;;;;;17.01;55.54;97296.78;5052542;28;19929;-70
2021/06/03 10:42:00;;;;;;;;;;;;;;;17.02;55.50;97296.59;5047044;28;19940;-70
2021/06/03 10:44:27;;;;;;;;;;;;;;;17.02;55.50;97303.69;5044479;28;19928;-70
2021/06/03 10:46:54;;;;;;;;;;;;;;;17.04;55.43;97296.41;5045578;28;19936;-70
2021/06/03 10:49:42;;;;;;;;;;;;;;;17.03;55.41;97300.03;5044927;28;20256;-70
2021/06/03 10:52:10;;;;;;;;;;;;;;;17.03;55.49;97294.75;5047841;28;20265;-70
2021/06/03 10:54:47;;;;;;;;;;;;;;;17.04;55.39;97299.03;5046697;28;19947;-70
2021/06/03 10:57:15;;;;;;;;;;;;;;;17.04;55.43;97304.28;5047021;28;19925;-70
2021/06/03 10:59:42;;;;;;;;;;;;;;;17.03;55.37;97298.19;5046794;28;20359;-70
2021/06/03 11:02:09;;;;;;;;;;;;;;;17.04;55.53;97296.41;5048664;28;19928;-70
2021/06/03 11:04:37;;;;;;;;;;;;;;;17.04;55.40;97291.94;5046041;28;20020;-70
2021/06/03 11:07:05;;;;;;;;;;;;;;;17.04;55.37;97291.94;5026731;28;20540;-70
2021/06/03 11:09:36;;;;;;;;;;;;;;;17.04;55.40;97291.94;5030224;28;20324;-70
2021/06/03 11:12:09;;;;;;;;;;;;;;;17.06;55.27;97297.81;5045959;28;20534;-70
2021/06/03 11:14:54;;;;;;;;;;;;;;;17.05;55.33;97301.44;5047260;28;20369;-70
2021/06/03 11:17:40;;;;;;;;;;;;;;;17.05;55.13;97298.00;5044912;28;19936;-70
2021/06/03 11:20:07;;;;;;;;;;;;;;;17.05;55.38;97290.94;5047202;28;19932;-70
2021/06/03 11:22:34;;;;;;;;;;;;;;;17.06;55.29;97289.13;5046318;28;19925;-70
2021/06/03 11:25:04;;;;;;;;;;;;;;;17.07;55.43;97290.75;5047963;28;20297;-70
2021/06/03 11:27:34;;;;;;;;;;;;;;;17.06;55.42;97281.25;5047186;28;19928;-70
2021/06/03 11:30:04;;;;;;;;;;;;;;;17.07;55.39;97285.47;5046651;28;20381;-70
2021/06/03 11:32:33;;;;;;;;;;;;;;;17.06;55.39;97282.03;5046027;28;19935;-70
2021/06/03 11:35:01;;;;;;;;;;;;;;;17.07;55.27;97291.53;5025956;28;19940;-70
2021/06/03 11:37:29;;;;;;;;;;;;;;;17.09;55.29;97292.16;5046486;28;19928;-70
2021/06/03 11:39:55;;;;;;;;;;;;;;;17.08;55.13;97282.66;5046239;28;20502;-70
2021/06/03 11:42:25;;;;;;;;;;;;;;;17.07;55.37;97291.53;5044854;28;19933;-70
2021/06/03 11:45:01;;;;;;;;;;;;;;;17.07;55.41;97288.91;5027173;28;19932;-70
2021/06/03 11:47:37;;;;;;;;;;;;;;;17.09;55.09;97288.72;5047775;28;20335;-70
2021/06/03 11:50:05;;;;;;;;;;;;;;;17.09;55.26;97270.31;5024094;28;19931;-70
2021/06/03 11:52:32;;;;;;;;;;;;;;;17.08;55.40;97269.50;5044275;28;19940;-70
2021/06/03 11:55:01;;;;;;;;;;;;;;;17.08;55.24;97272.16;5030646;28;19932;-70
2021/06/03 11:57:29;;;;;;;;;;;;;;;17.09;55.36;97255.34;5032245;28;19925;-70
2021/06/03 11:59:58;;;;;;;;;;;;;;;17.09;55.24;97255.34;5046458;28;20703;-70
2021/06/03 12:02:28;;;;;;;;;;;;;;;17.10;55.36;97264.03;5045776;28;19929;-70
2021/06/03 12:05:13;;;;;;;;;;;;;;;17.10;55.31;97253.50;5045896;28;20020;-70
2021/06/03 12:07:39;;;;;;;;;;;;;;;17.07;55.65;97267.06;5050500;28;20412;-70
2021/06/03 12:10:06;;;;;;;;;;;;;;;16.98;55.78;97266.41;5043891;28;19932;-70
2021/06/03 12:12:33;;;;;;;;;;;;;;;16.98;55.93;97261.16;5047475;28;19932;-70
2021/06/03 12:15:00;;;;;;;;;;;;;;;16.98;56.00;97258.53;5050326;28;20335;-70
2021/06/03 12:17:27;;;;;;;;;;;;;;;16.96;56.08;97262.38;5048782;28;19935;-70
2021/06/03 12:19:53;;;;;;;;;;;;;;;16.96;56.06;97257.09;5049516;28;20373;-70
2021/06/03 12:22:21;;;;;;;;;;;;;;;16.96;56.19;97254.47;5049828;28;19929;-70
2021/06/03 12:24:49;;;;;;;;;;;;;;;16.96;56.12;97259.75;5045692;28;20012;-70
2021/06/03 12:27:21;;;;;;;;;;;;;;;16.94;56.02;97251.22;5048179;28;20270;-71
2021/06/03 12:29:48;;;;;;;;;;;;;;;16.96;56.16;97257.09;5047228;28;20021;-71
2021/06/03 12:32:16;;;;;;;;;;;;;;;16.96;56.11;97247.41;5048407;28;19932;-71
2021/06/03 12:34:42;;;;;;;;;;;;;;;16.95;56.12;97248.38;5047137;28;19924;-70
2021/06/03 12:37:23;;;;;;;;;;;;;;;16.98;55.79;97249.84;5032409;28;19995;-70
2021/06/03 12:39:50;;;;;;;;;;;;;;;16.98;55.69;97244.59;5048054;28;20224;-70
2021/06/03 12:42:20;;;;;;;;;;;;;;;16.76;55.91;97218.31;5030521;28;20357;-70
2021/06/03 12:45:04;;;;;;;;;;;;;;;16.98;55.98;97240.13;5048645;28;19929;-71
2021/06/03 12:47:31;;;;;;;;;;;;;;;16.98;55.92;97249.84;5043382;28;19929;-71
2021/06/03 12:50:06;;;;;;;;;;;;;;;16.97;55.90;97241.13;5030588;28;19933;-71
2021/06/03 12:52:33;;;;;;;;;;;;;;;16.98;56.01;97226.97;5048652;28;20369;-71
2021/06/03 12:55:00;;;;;;;;;;;;;;;16.98;56.02;97237.50;5050448;28;19924;-71
2021/06/03 12:57:27;;;;;;;;;;;;;;;16.99;55.94;97239.09;5049134;28;19932;-71